Terminal Aerodrome Forecast
Issued by NWS Sioux Falls, SD

Home | Current Version | Previous Version | Graphics & Text | Print | Product List | Glossary Off
Versions: 1 2 3 4 5 6 7 8 9 10 11 12 13 14

000
FTUS43 KFSD 162335
TAFFSD
TAF
KFSD 162335Z 1700/1724 32008KT P6SM SKC
     FM170200 08004KT P6SM FEW250
     FM171500 11009KT P6SM SCT200
     FM172000 10010KT P6SM SCT050=

USA.gov is the U.S. government's official web portal to all federal, state and local government web resources and services.